createdAt,value
2019-03-01T00:01:19.483Z,1.00
2019-03-01T00:03:51.888Z,1.00
2019-03-01T00:06:41.383Z,1.00
2019-03-01T00:09:32.661Z,1.00
2019-03-01T00:12:07.356Z,1.00
2019-03-01T00:14:58.433Z,1.00
2019-03-01T00:17:52.929Z,1.00
2019-03-01T00:20:26.024Z,1.00
2019-03-01T00:23:03.292Z,1.00
2019-03-01T00:25:37.759Z,1.00
2019-03-01T00:28:18.229Z,1.00
2019-03-01T00:31:22.896Z,1.00
2019-03-01T00:34:14.074Z,1.00
2019-03-01T00:37:20.571Z,1.00
2019-03-01T00:40:04.273Z,1.00
2019-03-01T00:42:58.772Z,1.00
2019-03-01T00:45:27.430Z,1.00
2019-03-01T00:47:56.100Z,1.00
2019-03-01T00:50:24.735Z,1.00
2019-03-01T00:52:53.311Z,1.00
2019-03-01T00:55:22.302Z,1.00
2019-03-01T00:57:51.183Z,1.00
2019-03-01T01:00:38.018Z,1.00
2019-03-01T01:03:06.668Z,1.00
2019-03-01T01:05:35.307Z,1.00
2019-03-01T01:08:04.007Z,1.00
2019-03-01T01:10:32.715Z,1.00
2019-03-01T01:13:01.533Z,1.00
2019-03-01T01:15:30.091Z,1.00
2019-03-01T01:17:58.724Z,1.00
2019-03-01T01:20:27.378Z,1.00
2019-03-01T01:22:55.954Z,1.00
2019-03-01T01:25:24.847Z,1.00
2019-03-01T01:27:53.416Z,1.00
2019-03-01T01:30:22.071Z,1.00
2019-03-01T01:32:50.662Z,1.60
2019-03-01T01:35:19.361Z,2.60
2019-03-01T01:37:48.423Z,2.10
2019-03-01T01:40:17.486Z,4.50
2019-03-01T01:42:46.037Z,6.70
2019-03-01T01:45:14.766Z,7.70
2019-03-01T01:47:43.315Z,7.50
2019-03-01T01:50:12.125Z,10.60
2019-03-01T01:52:40.646Z,9.40
2019-03-01T01:55:09.806Z,8.20
2019-03-01T01:57:38.372Z,9.50
2019-03-01T02:00:17.458Z,9.40
2019-03-01T02:02:46.034Z,9.70
2019-03-01T02:05:14.684Z,10.20
2019-03-01T02:07:43.246Z,9.70
2019-03-01T02:10:12.162Z,10.40
2019-03-01T02:12:40.805Z,10.40
2019-03-01T02:15:12.724Z,10.40
2019-03-01T02:17:41.550Z,13.10
2019-03-01T02:20:12.098Z,12.00
2019-03-01T02:22:41.305Z,13.10
2019-03-01T02:25:12.464Z,14.70
2019-03-01T02:27:41.045Z,14.00
2019-03-01T02:30:12.802Z,13.70
2019-03-01T02:32:44.080Z,14.20
2019-03-01T02:35:14.883Z,13.90
2019-03-01T02:37:43.594Z,12.60
2019-03-01T02:40:14.687Z,10.50
2019-03-01T02:42:43.411Z,10.60
2019-03-01T02:45:17.360Z,11.00
2019-03-01T02:47:45.998Z,11.80
2019-03-01T02:50:16.734Z,13.50
2019-03-01T02:52:45.470Z,12.30
2019-03-01T02:55:19.527Z,11.50
2019-03-01T02:57:48.319Z,13.50
2019-03-01T03:00:22.635Z,11.90
2019-03-01T03:02:51.344Z,12.10
2019-03-01T03:05:20.724Z,11.60
2019-03-01T03:07:50.935Z,10.40
2019-03-01T03:10:19.611Z,10.40
2019-03-01T03:12:50.322Z,10.50
2019-03-01T03:15:20.819Z,10.40
2019-03-01T03:17:49.372Z,10.90
2019-03-01T03:20:18.378Z,10.40
2019-03-01T03:22:46.948Z,10.60
2019-03-01T03:25:15.729Z,10.40
2019-03-01T03:27:44.751Z,13.60
2019-03-01T03:30:15.982Z,14.00
2019-03-01T03:32:44.776Z,14.80
2019-03-01T03:35:14.187Z,14.70
2019-03-01T03:37:42.758Z,16.20
2019-03-01T03:40:14.111Z,15.10
2019-03-01T03:42:42.807Z,15.30
2019-03-01T03:45:14.526Z,16.40
2019-03-01T03:47:43.173Z,15.90
2019-03-01T03:50:16.328Z,16.30
2019-03-01T03:52:44.972Z,14.30
2019-03-01T03:55:17.980Z,15.40
2019-03-01T03:57:46.757Z,14.70
2019-03-01T04:00:21.226Z,15.40
2019-03-01T04:02:50.002Z,14.50
2019-03-01T04:05:18.633Z,15.30
2019-03-01T04:07:47.775Z,16.30
2019-03-01T04:10:16.429Z,15.80
2019-03-01T04:12:45.170Z,14.30
2019-03-01T04:15:17.778Z,15.30
2019-03-01T04:17:46.345Z,14.20
2019-03-01T04:20:19.914Z,15.00
2019-03-01T04:22:48.555Z,15.00
2019-03-01T04:25:17.587Z,14.40
2019-03-01T04:27:46.231Z,14.10
2019-03-01T04:30:16.814Z,14.60
2019-03-01T04:32:45.690Z,14.50
2019-03-01T04:35:15.398Z,14.60
2019-03-01T04:37:44.150Z,14.40
2019-03-01T04:40:14.953Z,14.10
2019-03-01T04:42:43.601Z,13.40
2019-03-01T04:45:14.446Z,14.40
2019-03-01T04:47:43.032Z,15.20
2019-03-01T04:50:12.644Z,16.30
2019-03-01T04:52:41.944Z,16.30
2019-03-01T04:55:18.799Z,16.30
2019-03-01T04:57:47.667Z,17.60
2019-03-01T05:00:19.377Z,18.50
2019-03-01T05:02:48.359Z,17.50
2019-03-01T05:05:17.260Z,17.70
2019-03-01T05:07:46.550Z,17.70
2019-03-01T05:10:16.132Z,16.30
2019-03-01T05:12:45.143Z,15.80
2019-03-01T05:15:16.323Z,14.50
2019-03-01T05:17:45.177Z,15.40
2019-03-01T05:20:14.281Z,13.40
2019-03-01T05:22:43.376Z,13.60
2019-03-01T05:25:12.269Z,13.90
2019-03-01T05:27:40.989Z,15.00
2019-03-01T05:30:15.863Z,12.90
2019-03-01T05:32:44.658Z,15.30
2019-03-01T05:35:13.766Z,15.00
2019-03-01T05:38:02.121Z,14.30
2019-03-01T05:40:31.025Z,13.20
2019-03-01T05:42:59.588Z,13.80
2019-03-01T05:45:30.187Z,12.50
2019-03-01T05:47:58.903Z,13.10
2019-03-01T05:50:27.791Z,12.10
2019-03-01T05:52:56.373Z,11.70
2019-03-01T05:55:25.369Z,11.90
2019-03-01T05:58:19.659Z,12.60
2019-03-01T06:00:49.772Z,12.10
2019-03-01T06:03:44.135Z,12.00
2019-03-01T06:06:28.099Z,11.80
2019-03-01T06:09:22.144Z,10.60
2019-03-01T06:11:57.017Z,11.60
2019-03-01T06:14:54.245Z,12.10
2019-03-01T06:17:31.865Z,10.50
2019-03-01T06:20:09.563Z,10.60
2019-03-01T06:22:47.321Z,10.30
2019-03-01T06:25:43.404Z,10.30
2019-03-01T06:28:15.124Z,10.30
2019-03-01T06:31:03.708Z,10.30
2019-03-01T06:33:51.763Z,7.90
2019-03-01T06:36:40.207Z,8.10
2019-03-01T06:39:25.571Z,8.00
2019-03-01T06:42:08.283Z,7.40
2019-03-01T06:44:57.614Z,9.00
2019-03-01T06:47:44.163Z,9.50
2019-03-01T06:50:17.230Z,8.90
2019-03-01T06:52:45.835Z,8.50
2019-03-01T06:55:17.793Z,6.90
2019-03-01T06:57:46.365Z,5.00
2019-03-01T07:00:15.367Z,6.10
2019-03-01T07:02:45.565Z,5.10
2019-03-01T07:05:14.370Z,4.40
2019-03-01T07:07:43.320Z,2.50
2019-03-01T07:10:11.844Z,1.00
2019-03-01T07:12:42.152Z,1.00
2019-03-01T07:15:11.347Z,1.00
2019-03-01T07:17:39.903Z,1.00
2019-03-01T07:20:09.651Z,1.00
2019-03-01T07:22:38.227Z,1.00
2019-03-01T07:25:08.272Z,1.00
2019-03-01T07:27:36.828Z,1.00
2019-03-01T07:30:10.737Z,1.00
2019-03-01T07:32:39.639Z,1.00
2019-03-01T07:35:09.765Z,1.00
2019-03-01T07:37:38.334Z,1.00
2019-03-01T07:40:09.455Z,1.00
2019-03-01T07:42:38.014Z,1.00
2019-03-01T07:45:12.437Z,1.00
2019-03-01T07:47:41.111Z,1.00
2019-03-01T07:50:14.311Z,1.00
2019-03-01T07:52:43.471Z,1.00
2019-03-01T07:55:12.496Z,1.00
2019-03-01T07:57:41.255Z,1.00
2019-03-01T08:00:15.469Z,1.00
2019-03-01T08:02:45.742Z,1.00
2019-03-01T08:05:16.419Z,1.00
2019-03-01T08:07:55.424Z,1.00
2019-03-01T08:10:20.945Z,1.00
2019-03-01T08:12:47.632Z,1.00
2019-03-01T08:15:17.793Z,1.00
2019-03-01T08:17:46.729Z,1.00
2019-03-01T08:20:16.619Z,1.00
2019-03-01T08:22:48.844Z,1.00
2019-03-01T08:25:22.528Z,1.00
2019-03-01T08:27:47.797Z,1.00
2019-03-01T08:30:17.534Z,1.00
2019-03-01T08:32:46.407Z,1.00
2019-03-01T08:35:16.902Z,1.00
2019-03-01T08:37:46.246Z,1.00
2019-03-01T08:40:18.435Z,1.00
2019-03-01T08:42:47.159Z,1.00
2019-03-01T08:45:21.266Z,1.00
2019-03-01T08:47:49.834Z,1.00
2019-03-01T08:50:18.970Z,1.00
2019-03-01T08:52:47.670Z,1.00
2019-03-01T08:55:19.123Z,1.00
2019-03-01T08:57:48.035Z,1.00
2019-03-01T09:00:26.915Z,1.00
2019-03-01T09:03:01.583Z,1.00
2019-03-01T09:05:30.281Z,1.00
2019-03-01T09:07:58.841Z,1.00
2019-03-01T09:10:29.314Z,1.00
2019-03-01T09:12:58.583Z,1.00
2019-03-01T09:15:27.498Z,1.00
2019-03-01T09:17:56.051Z,1.00
2019-03-01T09:20:24.743Z,1.00
2019-03-01T09:22:53.312Z,1.00
2019-03-01T09:25:22.143Z,1.00
2019-03-01T09:27:50.715Z,1.00
2019-03-01T09:30:24.453Z,1.00
2019-03-01T09:32:53.089Z,1.00
2019-03-01T09:35:43.247Z,1.00
2019-03-01T09:38:11.454Z,1.00
2019-03-01T09:40:40.599Z,1.00
2019-03-01T09:43:09.163Z,1.00
2019-03-01T09:45:38.095Z,1.00
2019-03-01T09:48:08.846Z,1.00
2019-03-01T09:50:38.298Z,1.00
2019-03-01T09:53:07.501Z,1.00
2019-03-01T09:55:37.702Z,1.00
2019-03-01T09:58:08.388Z,1.00
2019-03-01T10:00:55.593Z,1.00
2019-03-01T10:03:16.499Z,1.00
2019-03-01T10:05:45.351Z,1.00
2019-03-01T10:08:13.983Z,1.00
2019-03-01T10:10:42.982Z,1.00
2019-03-01T10:13:11.648Z,1.00
2019-03-01T10:15:40.292Z,1.00
2019-03-01T10:18:09.040Z,1.00
2019-03-01T10:20:37.666Z,1.00
2019-03-01T10:23:06.409Z,1.00
2019-03-01T10:25:34.995Z,1.00
2019-03-01T10:28:03.983Z,1.00
2019-03-01T10:30:32.550Z,1.00
2019-03-01T10:33:01.530Z,1.00
2019-03-01T10:35:30.352Z,1.00
2019-03-01T10:37:58.927Z,1.00
2019-03-01T10:40:28.851Z,1.00
2019-03-01T10:42:57.432Z,1.00
2019-03-01T10:45:28.747Z,1.00
2019-03-01T10:47:57.975Z,1.00
2019-03-01T10:50:26.875Z,1.00
2019-03-01T10:52:55.590Z,1.00
2019-03-01T10:55:24.451Z,1.00
2019-03-01T10:57:53.084Z,1.00
2019-03-01T11:00:26.937Z,1.00
2019-03-01T11:02:56.847Z,1.00
2019-03-01T11:05:26.702Z,1.00
2019-03-01T11:07:56.959Z,1.00
2019-03-01T11:10:28.265Z,1.00
2019-03-01T11:12:57.603Z,1.00
2019-03-01T11:15:26.170Z,1.00
2019-03-01T11:17:55.127Z,1.00
2019-03-01T11:20:24.536Z,1.00
2019-03-01T11:22:53.343Z,1.00
2019-03-01T11:25:28.559Z,1.00
2019-03-01T11:27:57.332Z,1.00
2019-03-01T11:30:28.498Z,1.00
2019-03-01T11:32:57.467Z,1.00
2019-03-01T11:35:26.091Z,1.00
2019-03-01T11:37:55.433Z,1.00
2019-03-01T11:40:34.934Z,1.00
2019-03-01T11:43:04.905Z,1.00
2019-03-01T11:45:33.622Z,1.00
2019-03-01T11:48:02.700Z,1.00
2019-03-01T11:50:31.572Z,1.00
2019-03-01T11:53:00.205Z,1.00
2019-03-01T11:55:28.949Z,1.00
2019-03-01T11:57:57.840Z,1.00
2019-03-01T12:00:27.482Z,1.00
2019-03-01T12:02:56.106Z,1.00
2019-03-01T12:05:25.120Z,1.00
2019-03-01T12:07:53.804Z,1.00
2019-03-01T12:10:31.178Z,1.00
2019-03-01T12:13:00.217Z,1.00
2019-03-01T12:15:28.840Z,1.00
2019-03-01T12:17:57.570Z,5.10
2019-03-01T12:20:31.783Z,19.80
2019-03-01T12:23:01.671Z,25.20
2019-03-01T12:25:30.316Z,25.80
2019-03-01T12:27:59.269Z,28.90
2019-03-01T12:30:27.907Z,33.10
2019-03-01T12:32:56.642Z,26.70
2019-03-01T12:35:25.220Z,28.30
2019-03-01T12:37:54.625Z,28.30
2019-03-01T12:40:32.059Z,30.70
2019-03-01T12:43:00.808Z,28.40
2019-03-01T12:45:29.448Z,25.90
2019-03-01T12:47:58.183Z,22.80
2019-03-01T12:50:26.839Z,21.50
2019-03-01T12:52:55.765Z,21.10
2019-03-01T12:55:26.745Z,21.10
2019-03-01T12:57:55.589Z,25.80
2019-03-01T13:00:26.979Z,27.00
2019-03-01T13:02:55.834Z,28.90
2019-03-01T13:05:25.712Z,36.60
2019-03-01T13:07:55.045Z,46.50
2019-03-01T13:10:32.578Z,47.60
2019-03-01T13:13:02.002Z,54.10
2019-03-01T13:15:31.823Z,60.50
2019-03-01T13:18:00.660Z,62.60
2019-03-01T13:20:29.999Z,65.20
2019-03-01T13:23:01.067Z,68.50
2019-03-01T13:25:30.232Z,69.70
2019-03-01T13:27:58.957Z,72.20
2019-03-01T13:30:28.888Z,73.50
2019-03-01T13:32:58.897Z,73.70
2019-03-01T13:35:28.515Z,74.30
2019-03-01T13:37:57.346Z,74.10
2019-03-01T13:40:26.398Z,74.40
2019-03-01T13:42:55.282Z,74.40
2019-03-01T13:45:28.586Z,75.50
2019-03-01T13:47:57.392Z,75.70
2019-03-01T13:50:25.992Z,76.20
2019-03-01T13:52:54.741Z,76.40
2019-03-01T13:55:23.914Z,76.40
2019-03-01T13:57:52.985Z,76.90
2019-03-01T14:00:22.777Z,74.70
2019-03-01T14:02:51.744Z,76.90
2019-03-01T14:05:20.448Z,74.80
2019-03-01T14:07:55.130Z,75.20
2019-03-01T14:10:22.651Z,76.70
2019-03-01T14:12:52.819Z,76.30
2019-03-01T14:15:21.465Z,76.60
2019-03-01T14:17:50.441Z,76.90
2019-03-01T14:20:21.387Z,76.90
2019-03-01T14:22:50.273Z,77.00
2019-03-01T14:25:19.127Z,76.20
2019-03-01T14:27:48.050Z,76.50
2019-03-01T14:30:30.158Z,76.80
2019-03-01T14:32:58.850Z,77.10
2019-03-01T14:35:27.657Z,77.10
2019-03-01T14:37:56.709Z,77.10
2019-03-01T14:40:25.570Z,77.10
2019-03-01T14:42:54.190Z,76.90
2019-03-01T14:45:28.879Z,77.30
2019-03-01T14:47:57.599Z,77.50
2019-03-01T14:50:29.934Z,76.70
2019-03-01T14:52:59.179Z,77.30
2019-03-01T14:55:40.421Z,77.20
2019-03-01T14:58:22.366Z,76.70
2019-03-01T15:00:58.879Z,77.00
2019-03-01T15:03:35.145Z,77.20
2019-03-01T15:06:04.576Z,77.30
2019-03-01T15:08:33.206Z,77.60
2019-03-01T15:11:07.939Z,77.70
2019-03-01T15:13:35.842Z,77.60
2019-03-01T15:16:06.045Z,77.70
2019-03-01T15:18:35.563Z,77.60
2019-03-01T15:21:06.537Z,77.80
2019-03-01T15:23:35.459Z,77.80
2019-03-01T15:26:06.650Z,78.00
2019-03-01T15:28:41.279Z,78.00
2019-03-01T15:31:10.346Z,78.00
2019-03-01T15:33:38.922Z,77.90
2019-03-01T15:36:07.740Z,78.00
2019-03-01T15:38:36.857Z,78.80
2019-03-01T15:41:06.538Z,78.70
2019-03-01T15:43:35.936Z,78.70
2019-03-01T15:46:05.746Z,78.00
2019-03-01T15:48:38.106Z,78.50
2019-03-01T15:51:06.783Z,78.60
2019-03-01T15:53:35.625Z,78.50
2019-03-01T15:56:05.993Z,78.60
2019-03-01T15:58:35.092Z,78.60
2019-03-01T16:01:09.354Z,78.70
2019-03-01T16:03:35.832Z,78.40
2019-03-01T16:06:04.783Z,78.50
2019-03-01T16:08:33.474Z,78.40
2019-03-01T16:11:02.711Z,78.60
2019-03-01T16:13:31.804Z,78.60
2019-03-01T16:16:01.672Z,78.50
2019-03-01T16:18:35.325Z,78.70
2019-03-01T16:21:05.280Z,78.40
2019-03-01T16:23:33.735Z,78.70
2019-03-01T16:26:02.521Z,78.60
2019-03-01T16:28:31.470Z,78.40
2019-03-01T16:31:04.482Z,78.30
2019-03-01T16:33:32.976Z,77.90
2019-03-01T16:36:03.638Z,77.90
2019-03-01T16:38:40.742Z,78.20
2019-03-01T16:41:07.449Z,78.00
2019-03-01T16:43:35.866Z,78.00
2019-03-01T16:46:04.722Z,78.00
2019-03-01T16:48:33.615Z,77.70
2019-03-01T16:51:02.502Z,78.00
2019-03-01T16:53:31.069Z,77.60
2019-03-01T16:56:02.720Z,78.00
2019-03-01T16:58:31.311Z,78.00
2019-03-01T17:01:00.327Z,78.00
2019-03-01T17:03:28.912Z,77.60
2019-03-01T17:05:57.484Z,77.60
2019-03-01T17:08:26.164Z,77.30
2019-03-01T17:10:55.406Z,77.10
2019-03-01T17:13:27.188Z,77.20
2019-03-01T17:15:54.381Z,77.30
2019-03-01T17:18:23.381Z,77.50
2019-03-01T17:20:51.965Z,77.60
2019-03-01T17:23:20.736Z,77.50
2019-03-01T17:25:49.656Z,76.60
2019-03-01T17:28:22.840Z,75.70
2019-03-01T17:30:50.852Z,74.70
2019-03-01T17:33:19.095Z,73.70
2019-03-01T17:35:48.074Z,72.40
2019-03-01T17:38:16.957Z,67.80
2019-03-01T17:40:45.846Z,70.40
2019-03-01T17:43:14.418Z,68.90
2019-03-01T17:45:43.302Z,69.50
2019-03-01T17:48:12.119Z,71.80
2019-03-01T17:50:41.687Z,71.90
2019-03-01T17:53:11.538Z,73.20
2019-03-01T17:55:40.091Z,73.10
2019-03-01T17:58:09.699Z,73.20
2019-03-01T18:00:45.285Z,73.20
2019-03-01T18:03:14.151Z,74.40
2019-03-01T18:05:42.725Z,74.30
2019-03-01T18:08:13.932Z,73.20
2019-03-01T18:10:42.731Z,73.20
2019-03-01T18:13:11.471Z,74.30
2019-03-01T18:15:40.053Z,74.20
2019-03-01T18:18:12.290Z,74.20
2019-03-01T18:20:39.459Z,73.90
2019-03-01T18:23:08.039Z,74.50
2019-03-01T18:25:36.630Z,74.30
2019-03-01T18:28:05.828Z,75.40
2019-03-01T18:30:35.026Z,74.90
2019-03-01T18:33:04.387Z,75.10
2019-03-01T18:35:33.051Z,75.20
2019-03-01T18:38:01.807Z,75.20
2019-03-01T18:40:30.428Z,75.30
2019-03-01T18:42:59.579Z,75.10
2019-03-01T18:45:28.504Z,74.50
2019-03-01T18:47:57.522Z,74.50
2019-03-01T18:50:31.167Z,74.40
2019-03-01T18:53:00.184Z,74.80
2019-03-01T18:55:28.766Z,74.00
2019-03-01T18:57:57.696Z,74.10
2019-03-01T19:00:41.753Z,74.20
2019-03-01T19:03:11.121Z,74.30
2019-03-01T19:05:41.172Z,73.90
2019-03-01T19:08:10.200Z,73.30
2019-03-01T19:10:38.914Z,73.30
2019-03-01T19:13:08.075Z,72.60
2019-03-01T19:15:39.502Z,72.30
2019-03-01T19:18:08.444Z,73.20
2019-03-01T19:20:42.746Z,72.60
2019-03-01T19:23:11.806Z,72.40
2019-03-01T19:25:40.294Z,70.20
2019-03-01T19:28:09.103Z,69.90
2019-03-01T19:30:37.781Z,71.10
2019-03-01T19:33:06.755Z,68.60
2019-03-01T19:35:35.336Z,69.80
2019-03-01T19:38:04.467Z,68.60
2019-03-01T19:40:33.046Z,69.80
2019-03-01T19:43:01.845Z,68.90
2019-03-01T19:45:30.488Z,68.60
2019-03-01T19:48:03.258Z,68.60
2019-03-01T19:50:32.777Z,67.90
2019-03-01T19:53:02.231Z,68.60
2019-03-01T19:55:31.305Z,65.60
2019-03-01T19:58:00.137Z,65.90
2019-03-01T20:00:30.816Z,65.90
2019-03-01T20:02:59.399Z,64.00
2019-03-01T20:05:38.569Z,62.50
2019-03-01T20:08:07.414Z,64.00
2019-03-01T20:10:37.006Z,62.00
2019-03-01T20:13:05.936Z,63.00
2019-03-01T20:15:35.753Z,61.10
2019-03-01T20:18:06.667Z,61.10
2019-03-01T20:20:36.227Z,59.00
2019-03-01T20:23:05.214Z,57.60
2019-03-01T20:25:34.140Z,59.10
2019-03-01T20:28:02.968Z,58.80
2019-03-01T20:30:33.138Z,60.10
2019-03-01T20:33:01.974Z,57.00
2019-03-01T20:35:30.590Z,53.10
2019-03-01T20:38:04.259Z,53.60
2019-03-01T20:40:29.765Z,52.50
2019-03-01T20:43:04.678Z,52.50
2019-03-01T20:45:31.450Z,51.40
2019-03-01T20:48:00.637Z,51.40
2019-03-01T20:50:29.224Z,47.60
2019-03-01T20:52:58.624Z,49.00
2019-03-01T20:55:27.319Z,48.60
2019-03-01T20:57:55.894Z,45.00
2019-03-01T21:00:27.273Z,46.10
2019-03-01T21:02:56.626Z,45.90
2019-03-01T21:05:28.731Z,45.80
2019-03-01T21:07:55.867Z,41.90
2019-03-01T21:10:29.667Z,39.70
2019-03-01T21:12:58.551Z,40.10
2019-03-01T21:15:27.187Z,38.90
2019-03-01T21:17:57.257Z,39.00
2019-03-01T21:20:26.796Z,38.60
2019-03-01T21:22:56.002Z,35.40
2019-03-01T21:25:25.666Z,37.60
2019-03-01T21:27:57.701Z,39.00
2019-03-01T21:30:27.295Z,35.60
2019-03-01T21:32:56.448Z,35.00
2019-03-01T21:35:25.087Z,36.00
2019-03-01T21:37:54.222Z,37.00
2019-03-01T21:40:23.097Z,31.80
2019-03-01T21:42:52.958Z,31.90
2019-03-01T21:45:24.580Z,29.30
2019-03-01T21:47:53.879Z,26.70
2019-03-01T21:50:22.460Z,23.30
2019-03-01T21:52:51.669Z,21.40
2019-03-01T21:55:24.761Z,15.30
2019-03-01T21:57:52.922Z,13.40
2019-03-01T22:00:31.311Z,10.90
2019-03-01T22:02:59.096Z,8.50
2019-03-01T22:05:27.732Z,8.40
2019-03-01T22:07:56.682Z,6.80
2019-03-01T22:10:25.235Z,5.10
2019-03-01T22:12:56.899Z,8.40
2019-03-01T22:15:28.237Z,4.30
2019-03-01T22:17:58.091Z,2.50
2019-03-01T22:20:26.720Z,1.50
2019-03-01T22:22:55.551Z,1.00
2019-03-01T22:25:24.279Z,1.00
2019-03-01T22:27:53.150Z,1.00
2019-03-01T22:30:30.669Z,1.00
2019-03-01T22:32:59.514Z,1.00
2019-03-01T22:35:28.162Z,1.00
2019-03-01T22:38:00.750Z,1.70
2019-03-01T22:40:27.978Z,1.00
2019-03-01T22:42:57.873Z,1.00
2019-03-01T22:45:26.652Z,1.20
2019-03-01T22:47:55.418Z,1.00
2019-03-01T22:50:24.174Z,1.00
2019-03-01T22:52:53.022Z,1.00
2019-03-01T22:55:40.922Z,1.00
2019-03-01T22:58:10.003Z,1.00
2019-03-01T23:00:57.890Z,1.00
2019-03-01T23:03:25.730Z,1.00
2019-03-01T23:05:54.474Z,1.00
2019-03-01T23:08:23.328Z,1.00
2019-03-01T23:10:53.814Z,1.00
2019-03-01T23:13:22.698Z,1.00
2019-03-01T23:15:51.605Z,1.00
2019-03-01T23:18:20.173Z,1.00
2019-03-01T23:20:48.851Z,1.00
2019-03-01T23:23:23.869Z,1.00
2019-03-01T23:25:48.656Z,1.00
2019-03-01T23:28:17.556Z,1.00
2019-03-01T23:30:46.208Z,1.00
2019-03-01T23:33:15.087Z,1.00
2019-03-01T23:35:43.694Z,1.00
2019-03-01T23:38:14.875Z,1.00
2019-03-01T23:40:42.994Z,1.00
2019-03-01T23:43:12.078Z,1.00
2019-03-01T23:45:42.446Z,1.00
2019-03-01T23:48:13.566Z,1.00
2019-03-01T23:50:41.626Z,1.00
2019-03-01T23:53:10.420Z,1.00
2019-03-01T23:55:39.600Z,1.00
2019-03-01T23:58:08.294Z,1.00
